Time;durP1;ratioP1;P1;durP2;ratioP2;P2;SDS_P1;SDS_P2;PMS_P1;PMS_P2;Temp;Humidity;BMP_temperature;BMP_pressure;BME280_temperature;BME280_humidity;BME280_pressure;Samples;Min_cycle;Max_cycle;Signal;HPM_P1;HPM_P2
2022/06/17 00:00:48;;;;;;;3.85;2.67;;;;;22.90;102240.00;;;;5048276;28;20207;-77
2022/06/17 00:03:16;;;;;;;4.55;2.40;;;;;22.90;102249.00;;;;5047776;28;20195;-77
2022/06/17 00:05:44;;;;;;;2.80;2.47;;;;;22.90;102251.00;;;;5046241;28;20200;-77
2022/06/17 00:08:15;;;;;;;3.10;2.50;;;;;22.90;102253.00;;;;5047075;28;20212;-77
2022/06/17 00:10:43;;;;;;;4.75;2.58;;;;;22.90;102259.00;;;;5047725;28;20227;-78
2022/06/17 00:13:13;;;;;;;3.00;2.10;;;;;22.90;102256.00;;;;5046627;28;20192;-77
2022/06/17 00:15:41;;;;;;;3.25;2.40;;;;;22.90;102256.00;;;;5049854;28;20208;-78
2022/06/17 00:18:10;;;;;;;5.40;2.70;;;;;22.90;102259.00;;;;5050871;28;21025;-77
2022/06/17 00:20:37;;;;;;;3.90;2.53;;;;;22.90;102255.00;;;;5050708;28;20697;-77
2022/06/17 00:23:09;;;;;;;4.65;2.10;;;;;23.00;102257.00;;;;5047723;28;20215;-78
2022/06/17 00:25:38;;;;;;;2.53;2.05;;;;;23.00;102244.00;;;;5046648;28;20188;-77
2022/06/17 00:28:10;;;;;;;3.70;2.33;;;;;23.00;102243.00;;;;5048987;28;20254;-78
2022/06/17 00:30:38;;;;;;;3.35;2.25;;;;;23.00;102239.00;;;;5034519;28;20227;-77
2022/06/17 00:33:05;;;;;;;2.20;1.90;;;;;23.00;102244.00;;;;5050511;28;20196;-77
2022/06/17 00:35:37;;;;;;;2.13;1.83;;;;;23.00;102244.00;;;;5046358;28;20196;-78
2022/06/17 00:38:05;;;;;;;3.67;2.70;;;;;23.00;102241.00;;;;5048595;28;20203;-77
2022/06/17 00:40:34;;;;;;;2.92;1.77;;;;;23.00;102244.00;;;;5048190;28;20195;-77
2022/06/17 00:43:04;;;;;;;2.53;2.33;;;;;23.00;102247.00;;;;5047640;28;20219;-77
2022/06/17 00:45:35;;;;;;;2.60;2.08;;;;;23.00;102240.00;;;;5047792;28;20196;-77
2022/06/17 00:48:07;;;;;;;4.75;2.17;;;;;23.00;102247.00;;;;5044257;28;20196;-75
2022/06/17 00:50:43;;;;;;;3.67;2.38;;;;;23.00;102245.00;;;;5045562;28;20706;-75
2022/06/17 00:53:19;;;;;;;3.00;2.30;;;;;23.00;102244.00;;;;5043726;28;20203;-75
2022/06/17 00:55:50;;;;;;;3.75;2.35;;;;;23.00;102249.00;;;;5050458;28;20286;-75
2022/06/17 00:58:21;;;;;;;3.70;2.10;;;;;23.00;102251.00;;;;5044342;28;20199;-75
2022/06/17 01:00:52;;;;;;;2.53;2.10;;;;;23.00;102254.00;;;;5050354;28;20210;-75
2022/06/17 01:03:23;;;;;;;2.38;2.17;;;;;22.90;102251.00;;;;5051098;28;20195;-75
2022/06/17 01:05:58;;;;;;;2.08;1.85;;;;;22.90;102250.00;;;;5050076;28;20188;-75
2022/06/17 01:11:16;;;;;;;2.42;2.22;;;;;22.90;102251.00;;;;5050368;28;20226;-76
2022/06/17 01:13:48;;;;;;;3.17;2.05;;;;;22.90;102255.00;;;;5050330;28;20204;-76
2022/06/17 01:16:16;;;;;;;2.50;2.30;;;;;22.90;102258.00;;;;5045285;28;20202;-76
2022/06/17 01:18:46;;;;;;;3.00;2.28;;;;;22.80;102260.00;;;;5050055;28;20583;-76
2022/06/17 01:21:21;;;;;;;2.90;2.30;;;;;22.80;102248.00;;;;5049374;28;20200;-76
2022/06/17 01:23:50;;;;;;;2.28;2.08;;;;;22.80;102252.00;;;;5049987;28;20214;-76
2022/06/17 01:26:18;;;;;;;2.75;2.55;;;;;22.80;102248.00;;;;5046965;28;20203;-76
2022/06/17 01:28:46;;;;;;;3.00;2.30;;;;;22.80;102248.00;;;;5048751;28;21090;-76
2022/06/17 01:31:14;;;;;;;3.53;2.30;;;;;22.70;102246.00;;;;5044753;28;20227;-76
2022/06/17 01:33:43;;;;;;;2.03;1.75;;;;;22.70;102246.00;;;;5047957;28;20210;-76
2022/06/17 01:36:16;;;;;;;2.35;2.15;;;;;22.70;102253.00;;;;5049072;28;20238;-75
2022/06/17 01:38:47;;;;;;;3.53;2.80;;;;;22.70;102245.00;;;;5049826;28;20199;-76
2022/06/17 01:41:17;;;;;;;3.05;2.47;;;;;22.60;102243.00;;;;5048473;28;20273;-76
2022/06/17 01:43:50;;;;;;;2.80;2.50;;;;;22.60;102249.00;;;;5049238;28;20236;-76
2022/06/17 01:46:22;;;;;;;2.45;2.03;;;;;22.60;102249.00;;;;5050079;28;20192;-76
2022/06/17 01:48:54;;;;;;;3.05;2.17;;;;;22.60;102247.00;;;;5046478;28;20203;-76
2022/06/17 01:51:25;;;;;;;2.75;2.50;;;;;22.50;102246.00;;;;5043151;28;20227;-76
2022/06/17 01:53:57;;;;;;;2.72;2.53;;;;;22.50;102243.00;;;;5049389;28;20557;-76
2022/06/17 01:56:34;;;;;;;2.85;2.10;;;;;22.50;102250.00;;;;5049232;28;20206;-76
2022/06/17 01:59:05;;;;;;;2.92;2.17;;;;;22.50;102246.00;;;;5048668;28;20248;-77
2022/06/17 02:01:37;;;;;;;3.47;2.40;;;;;22.50;102247.00;;;;5049010;28;20210;-76
2022/06/17 02:04:10;;;;;;;2.95;2.28;;;;;22.40;102240.00;;;;5048404;28;20192;-76
2022/06/17 02:06:46;;;;;;;2.90;2.33;;;;;22.40;102248.00;;;;5043047;28;20253;-76
2022/06/17 02:09:14;;;;;;;2.15;1.95;;;;;22.40;102241.00;;;;5047324;28;20199;-76
2022/06/17 02:11:43;;;;;;;3.90;2.50;;;;;22.40;102247.00;;;;5048116;28;20684;-76
2022/06/17 02:14:10;;;;;;;2.85;2.10;;;;;22.40;102237.00;;;;5048535;28;20200;-76
2022/06/17 02:16:41;;;;;;;3.10;2.08;;;;;22.40;102238.00;;;;5048307;28;20200;-76
2022/06/17 02:19:09;;;;;;;4.65;2.13;;;;;22.40;102230.00;;;;5048161;28;20224;-76
2022/06/17 02:21:39;;;;;;;2.47;2.10;;;;;22.30;102226.00;;;;5049032;28;20196;-76
2022/06/17 02:24:08;;;;;;;3.03;2.38;;;;;22.30;102216.00;;;;5043964;28;20199;-76
2022/06/17 02:26:37;;;;;;;2.45;2.25;;;;;22.30;102217.00;;;;5047013;28;20210;-76
2022/06/17 02:29:10;;;;;;;2.60;2.17;;;;;22.30;102211.00;;;;5045318;28;20398;-76
2022/06/17 02:31:40;;;;;;;2.50;2.30;;;;;22.30;102205.00;;;;5048220;28;20234;-77
2022/06/17 02:34:09;;;;;;;4.20;2.40;;;;;22.30;102213.00;;;;5035952;28;20192;-76
2022/06/17 02:36:42;;;;;;;3.25;2.80;;;;;22.20;102217.00;;;;5047815;28;20693;-76
2022/06/17 02:39:12;;;;;;;2.75;2.40;;;;;22.30;102220.00;;;;5045296;28;20207;-76
2022/06/17 02:41:40;;;;;;;3.08;2.65;;;;;22.30;102221.00;;;;5047859;28;20207;-76
2022/06/17 02:44:16;;;;;;;4.32;2.92;;;;;22.20;102218.00;;;;5047971;28;20234;-76
2022/06/17 02:46:46;;;;;;;3.42;3.13;;;;;22.20;102229.00;;;;5048725;28;20270;-76
2022/06/17 02:49:17;;;;;;;8.07;2.80;;;;;22.20;102228.00;;;;5049071;28;20238;-76
2022/06/17 02:51:45;;;;;;;3.65;3.03;;;;;22.20;102234.00;;;;5044418;28;20219;-76
2022/06/17 02:54:17;;;;;;;3.47;3.17;;;;;22.20;102239.00;;;;5048576;28;20199;-76
2022/06/17 02:56:49;;;;;;;3.67;3.20;;;;;22.20;102239.00;;;;5042470;28;20235;-76
2022/06/17 02:59:21;;;;;;;4.65;3.25;;;;;22.20;102232.00;;;;5048448;28;20203;-76
2022/06/17 03:01:52;;;;;;;4.20;3.42;;;;;22.20;102230.00;;;;5049195;28;20199;-76
2022/06/17 03:04:23;;;;;;;4.43;2.92;;;;;22.10;102235.00;;;;5046486;28;20571;-76
2022/06/17 03:06:51;;;;;;;3.47;3.17;;;;;22.10;102239.00;;;;5048094;28;20579;-77
2022/06/17 03:09:21;;;;;;;3.45;3.15;;;;;22.10;102239.00;;;;5047585;28;20211;-76
2022/06/17 03:11:51;;;;;;;3.40;2.78;;;;;22.10;102238.00;;;;5046951;28;20223;-76
2022/06/17 03:14:22;;;;;;;5.35;3.40;;;;;22.10;102248.00;;;;5042167;28;20206;-76
2022/06/17 03:16:53;;;;;;;3.40;2.95;;;;;22.10;102238.00;;;;5049120;28;20207;-76
2022/06/17 03:19:23;;;;;;;3.33;2.97;;;;;22.10;102238.00;;;;5045726;28;20227;-76
2022/06/17 03:21:50;;;;;;;4.20;3.30;;;;;22.10;102236.00;;;;5047593;28;20191;-76
2022/06/17 03:24:23;;;;;;;3.67;3.08;;;;;22.10;102241.00;;;;5048299;28;20199;-77
2022/06/17 03:26:54;;;;;;;3.67;2.92;;;;;22.10;102243.00;;;;5042202;28;20672;-76
2022/06/17 03:29:25;;;;;;;4.65;3.28;;;;;22.10;102241.00;;;;5045272;28;20623;-76
2022/06/17 03:32:00;;;;;;;3.45;3.15;;;;;22.10;102248.00;;;;5042158;28;20231;-76
2022/06/17 03:34:34;;;;;;;5.60;3.30;;;;;22.10;102252.00;;;;5048175;28;20191;-76
2022/06/17 03:37:07;;;;;;;4.18;3.00;;;;;22.10;102257.00;;;;5046237;28;20712;-76
2022/06/17 03:39:37;;;;;;;4.40;2.92;;;;;22.10;102254.00;;;;5046026;28;20199;-76
2022/06/17 03:42:13;;;;;;;3.30;3.00;;;;;22.10;102267.00;;;;5045418;28;20207;-76
2022/06/17 03:44:46;;;;;;;5.35;3.13;;;;;22.20;102254.00;;;;5047947;28;20199;-76
2022/06/17 03:47:20;;;;;;;4.10;3.47;;;;;22.20;102253.00;;;;5044903;28;20691;-76
2022/06/17 03:49:55;;;;;;;4.35;3.80;;;;;22.20;102257.00;;;;5046161;28;20195;-77
2022/06/17 03:52:31;;;;;;;4.68;3.28;;;;;22.20;102261.00;;;;5052389;28;20198;-76
2022/06/17 03:54:58;;;;;;;4.47;3.40;;;;;22.30;102258.00;;;;5051953;28;20206;-76
2022/06/17 03:57:31;;;;;;;5.90;3.38;;;;;22.30;102262.00;;;;5051747;28;20203;-76
2022/06/17 04:00:01;;;;;;;4.43;3.83;;;;;22.30;102250.00;;;;5052441;28;20196;-76
2022/06/17 04:02:32;;;;;;;4.60;3.95;;;;;22.30;102246.00;;;;5051859;28;20265;-76
2022/06/17 04:05:01;;;;;;;4.60;3.97;;;;;22.40;102246.00;;;;5045944;28;20196;-76
2022/06/17 04:07:28;;;;;;;5.85;4.80;;;;;22.40;102256.00;;;;5052003;28;20226;-76
2022/06/17 04:09:55;;;;;;;5.75;4.28;;;;;22.40;102251.00;;;;5051433;28;20195;-76
2022/06/17 04:12:27;;;;;;;4.85;4.25;;;;;22.40;102248.00;;;;5051391;28;20199;-76
2022/06/17 04:15:02;;;;;;;4.20;3.75;;;;;22.50;102242.00;;;;5050255;28;20196;-76
2022/06/17 04:17:34;;;;;;;6.35;4.45;;;;;22.50;102241.00;;;;5050985;28;20195;-76
2022/06/17 04:20:25;;;;;;;7.85;4.70;;;;;22.50;102250.00;;;;5050097;28;20219;-76
2022/06/17 04:22:55;;;;;;;6.32;4.80;;;;;22.60;102247.00;;;;5050655;28;20199;-76
2022/06/17 04:25:31;;;;;;;6.90;5.47;;;;;22.60;102239.00;;;;5051465;28;20199;-76
2022/06/17 04:28:06;;;;;;;6.10;4.97;;;;;22.60;102235.00;;;;5049511;28;20191;-76
2022/06/17 04:30:40;;;;;;;7.82;5.28;;;;;22.60;102231.00;;;;5051777;28;20215;-76
2022/06/17 04:33:23;;;;;;;5.88;4.93;;;;;22.60;102224.00;;;;5048985;28;20198;-77
2022/06/17 04:35:54;;;;;;;4.80;4.30;;;;;22.70;102237.00;;;;5050485;28;20206;-76
2022/06/17 04:38:21;;;;;;;4.82;4.43;;;;;22.80;102232.00;;;;5049816;28;20211;-76
2022/06/17 04:40:54;;;;;;;7.03;4.65;;;;;22.80;102232.00;;;;5050573;28;20207;-76
2022/06/17 04:43:28;;;;;;;5.53;4.85;;;;;22.80;102231.00;;;;5049436;28;20262;-76
2022/06/17 04:45:59;;;;;;;5.85;4.70;;;;;22.80;102235.00;;;;5048251;28;20196;-76
2022/06/17 04:48:26;;;;;;;5.43;4.65;;;;;22.90;102236.00;;;;5046665;28;20196;-76
2022/06/17 04:50:54;;;;;;;5.40;4.90;;;;;22.90;102233.00;;;;5047739;28;20692;-76
2022/06/17 04:53:22;;;;;;;6.15;4.95;;;;;23.00;102226.00;;;;5048918;28;20199;-76
2022/06/17 04:55:50;;;;;;;6.95;5.47;;;;;23.00;102231.00;;;;5047170;28;20204;-76
2022/06/17 04:58:20;;;;;;;6.93;5.40;;;;;23.00;102236.00;;;;5046890;28;20250;-76
2022/06/17 05:00:49;;;;;;;7.47;5.80;;;;;23.10;102229.00;;;;5047882;28;20219;-76
2022/06/17 05:03:18;;;;;;;5.63;5.07;;;;;23.10;102229.00;;;;5047758;28;20569;-76
2022/06/17 05:05:47;;;;;;;6.43;5.38;;;;;23.10;102229.00;;;;5049796;28;20653;-76
2022/06/17 05:08:21;;;;;;;5.88;5.15;;;;;23.20;102230.00;;;;5048236;28;20199;-76
2022/06/17 05:10:53;;;;;;;5.97;5.38;;;;;23.20;102229.00;;;;5044763;28;20209;-76
2022/06/17 05:13:24;;;;;;;6.65;5.93;;;;;23.30;102230.00;;;;5046811;28;20238;-76
2022/06/17 05:15:51;;;;;;;9.80;5.75;;;;;23.30;102230.00;;;;5045946;28;20204;-76
2022/06/17 05:18:21;;;;;;;7.95;5.65;;;;;23.40;102210.00;;;;5048280;28;20214;-76
2022/06/17 05:20:48;;;;;;;8.98;5.45;;;;;23.40;102206.00;;;;5045960;28;20253;-76
2022/06/17 05:23:17;;;;;;;10.32;5.78;;;;;23.50;102208.00;;;;5047146;28;20207;-76
2022/06/17 05:25:49;;;;;;;6.72;5.70;;;;;23.50;102211.00;;;;5047105;28;20191;-76
2022/06/17 05:28:19;;;;;;;7.13;5.65;;;;;23.60;102218.00;;;;5045457;28;21638;-76
2022/06/17 05:30:52;;;;;;;6.28;5.05;;;;;23.60;102216.00;;;;5044609;28;20200;-76
2022/06/17 05:33:22;;;;;;;6.20;5.60;;;;;23.60;102219.00;;;;5047787;28;20657;-77
2022/06/17 05:35:50;;;;;;;6.72;5.22;;;;;23.70;102223.00;;;;5046618;28;20646;-76
2022/06/17 05:38:17;;;;;;;8.82;5.60;;;;;23.80;102223.00;;;;5048144;28;20218;-76
2022/06/17 05:40:45;;;;;;;5.25;4.75;;;;;23.80;102227.00;;;;5046838;28;20231;-76
2022/06/17 05:43:13;;;;;;;6.65;6.05;;;;;23.90;102229.00;;;;5010990;28;1072708;-77
2022/06/17 05:45:41;;;;;;;6.45;5.65;;;;;24.00;102219.00;;;;5030470;28;20188;-76
2022/06/17 05:48:09;;;;;;;7.15;5.90;;;;;24.00;102211.00;;;;5046419;28;20203;-76
2022/06/17 05:50:37;;;;;;;6.47;5.05;;;;;24.10;102213.00;;;;5031360;28;20653;-76
2022/06/17 05:53:07;;;;;;;5.47;4.93;;;;;24.10;102213.00;;;;5048699;28;20223;-77
2022/06/17 05:55:36;;;;;;;5.75;5.18;;;;;24.20;102209.00;;;;5048514;28;20211;-76
2022/06/17 05:58:04;;;;;;;6.15;5.55;;;;;24.20;102201.00;;;;5048351;28;20733;-77
2022/06/17 06:00:33;;;;;;;6.13;5.40;;;;;24.30;102201.00;;;;5048584;28;20196;-77
2022/06/17 06:03:02;;;;;;;6.82;5.75;;;;;24.30;102205.00;;;;5047656;28;20204;-77
2022/06/17 06:05:33;;;;;;;7.70;5.50;;;;;24.40;102198.00;;;;5047394;28;20192;-78
2022/06/17 06:08:03;;;;;;;6.80;6.10;;;;;24.40;102194.00;;;;5046562;28;20206;-78
2022/06/17 06:10:30;;;;;;;6.07;5.53;;;;;24.50;102197.00;;;;5048100;28;20216;-77
2022/06/17 06:13:00;;;;;;;6.43;5.57;;;;;24.60;102193.00;;;;5047316;28;20188;-77
2022/06/17 06:15:31;;;;;;;7.20;5.40;;;;;24.60;102191.00;;;;5048127;28;20214;-78
2022/06/17 06:17:58;;;;;;;8.65;6.30;;;;;24.70;102190.00;;;;5048318;28;20202;-77
2022/06/17 06:20:26;;;;;;;8.23;5.80;;;;;24.80;102191.00;;;;5047317;28;20211;-77
2022/06/17 06:22:53;;;;;;;7.05;6.32;;;;;24.80;102206.00;;;;5047842;28;20226;-77
2022/06/17 06:25:22;;;;;;;6.75;6.05;;;;;24.90;102204.00;;;;5048332;28;20734;-77
2022/06/17 06:27:50;;;;;;;7.10;6.30;;;;;25.00;102202.00;;;;5047961;28;20207;-75
2022/06/17 06:30:34;;;;;;;8.85;6.60;;;;;24.90;102198.00;;;;5046420;28;20195;-78
2022/06/17 06:33:03;;;;;;;6.43;5.65;;;;;25.10;102182.00;;;;5047184;28;20230;-77
2022/06/17 06:35:35;;;;;;;6.25;5.65;;;;;25.10;102184.00;;;;5044218;28;20196;-77
2022/06/17 06:38:04;;;;;;;7.10;5.30;;;;;25.20;102196.00;;;;5045591;28;20197;-77
2022/06/17 06:40:34;;;;;;;7.78;5.80;;;;;25.30;102191.00;;;;5046789;28;20207;-78
2022/06/17 06:43:02;;;;;;;8.55;6.15;;;;;25.30;102184.00;;;;5045762;28;20619;-78
2022/06/17 06:45:32;;;;;;;6.30;5.63;;;;;25.40;102179.00;;;;5045694;28;20202;-76
2022/06/17 06:48:03;;;;;;;7.25;6.55;;;;;25.40;102180.00;;;;5044365;28;20564;-77
2022/06/17 06:50:33;;;;;;;7.63;6.53;;;;;25.50;102177.00;;;;5047673;28;20250;-77
2022/06/17 06:53:01;;;;;;;7.38;6.47;;;;;25.60;102181.00;;;;5046363;28;20192;-77
2022/06/17 06:55:28;;;;;;;7.30;5.68;;;;;25.70;102179.00;;;;5044473;28;20203;-77
2022/06/17 06:57:59;;;;;;;7.63;6.15;;;;;25.70;102177.00;;;;5045395;28;20200;-76
2022/06/17 07:00:29;;;;;;;6.47;5.78;;;;;25.80;102171.00;;;;5045925;28;20195;-77
2022/06/17 07:02:57;;;;;;;6.97;6.28;;;;;25.90;102171.00;;;;5044863;28;20219;-78
2022/06/17 07:05:24;;;;;;;11.45;6.15;;;;;26.00;102175.00;;;;5044039;28;20207;-77
2022/06/17 07:07:52;;;;;;;6.22;5.63;;;;;26.10;102181.00;;;;5047106;28;20207;-79
2022/06/17 07:10:22;;;;;;;7.00;5.97;;;;;26.20;102177.00;;;;5046893;28;20203;-77
2022/06/17 07:12:50;;;;;;;6.30;5.32;;;;;26.30;102191.00;;;;5046432;28;20206;-77
2022/06/17 07:15:19;;;;;;;6.25;5.28;;;;;26.40;102192.00;;;;5046632;28;21081;-77
2022/06/17 07:17:55;;;;;;;8.82;4.63;;;;;26.50;102210.00;;;;5044530;28;20195;-77
2022/06/17 07:20:24;;;;;;;6.28;5.15;;;;;26.60;102213.00;;;;5045212;28;20299;-77
2022/06/17 07:22:51;;;;;;;7.78;4.78;;;;;26.80;102216.00;;;;5044983;28;20255;-76
2022/06/17 07:25:19;;;;;;;5.50;4.90;;;;;26.80;102211.00;;;;5047028;28;20200;-76
2022/06/17 07:27:46;;;;;;;6.10;4.85;;;;;27.00;102208.00;;;;5047270;28;20657;-76
2022/06/17 07:30:19;;;;;;;7.47;4.50;;;;;27.10;102199.00;;;;5041694;28;20208;-77
2022/06/17 07:32:47;;;;;;;5.07;4.20;;;;;27.20;102202.00;;;;5047672;28;20210;-77
2022/06/17 07:35:17;;;;;;;6.85;5.03;;;;;27.30;102196.00;;;;5045968;28;20736;-76
2022/06/17 07:40:30;;;;;;;5.13;4.25;;;;;27.50;102208.00;;;;5046267;28;20739;-78
2022/06/17 07:42:58;;;;;;;4.85;4.18;;;;;27.60;102226.00;;;;5047967;28;20242;-77
2022/06/17 07:45:29;;;;;;;5.65;4.13;;;;;27.70;102235.00;;;;5032962;28;20208;-76
2022/06/17 07:47:58;;;;;;;4.93;4.47;;;;;27.80;102236.00;;;;5043854;28;20692;-78
2022/06/17 07:50:28;;;;;;;5.03;4.53;;;;;27.90;102226.00;;;;5046961;28;20662;-77
2022/06/17 07:52:55;;;;;;;4.65;4.25;;;;;28.00;102226.00;;;;5047985;28;20577;-77
2022/06/17 07:55:23;;;;;;;8.00;4.40;;;;;28.10;102220.00;;;;5045286;28;20207;-78
2022/06/17 07:57:51;;;;;;;4.45;3.92;;;;;28.20;102228.00;;;;5040990;28;20210;-76
2022/06/17 08:00:22;;;;;;;4.28;3.88;;;;;28.30;102220.00;;;;5044765;28;20211;-76
2022/06/17 08:02:51;;;;;;;4.55;3.85;;;;;28.50;102221.00;;;;5035069;28;20237;-77
2022/06/17 08:05:21;;;;;;;4.90;4.28;;;;;28.60;102221.00;;;;5029266;28;20215;-77
2022/06/17 08:07:49;;;;;;;5.10;4.65;;;;;28.70;102224.00;;;;5046982;28;20200;-77
2022/06/17 08:10:18;;;;;;;4.35;3.63;;;;;28.80;102217.00;;;;5047527;28;20200;-76
2022/06/17 08:12:46;;;;;;;9.55;4.38;;;;;28.90;102218.00;;;;5047136;28;20204;-77
2022/06/17 08:15:14;;;;;;;3.75;3.45;;;;;29.00;102231.00;;;;5045587;28;20201;-77
2022/06/17 08:17:42;;;;;;;4.00;3.53;;;;;29.20;102231.00;;;;5046190;28;20589;-77
2022/06/17 08:20:17;;;;;;;5.40;4.00;;;;;29.20;102230.00;;;;5045270;28;20616;-77
2022/06/17 08:22:45;;;;;;;4.03;3.13;;;;;29.40;102225.00;;;;5046434;28;20231;-76
2022/06/17 08:25:13;;;;;;;3.50;3.20;;;;;29.50;102222.00;;;;5044396;28;20199;-77
2022/06/17 08:27:44;;;;;;;4.43;4.00;;;;;29.60;102225.00;;;;5046278;28;20188;-76
2022/06/17 08:30:13;;;;;;;4.88;3.78;;;;;29.70;102223.00;;;;5043763;28;20204;-76
2022/06/17 08:32:46;;;;;;;3.35;3.00;;;;;29.90;102227.00;;;;5044446;28;20208;-76
2022/06/17 08:35:16;;;;;;;3.63;3.25;;;;;30.00;102227.00;;;;5047479;28;20250;-76
2022/06/17 08:37:45;;;;;;;3.92;3.55;;;;;30.10;102229.00;;;;5034641;28;20211;-76
2022/06/17 08:40:33;;;;;;;8.13;3.28;;;;;30.10;102233.00;;;;5040806;28;20195;-76
2022/06/17 08:43:15;;;;;;;5.57;3.53;;;;;30.20;102222.00;;;;5045415;28;20238;-77
2022/06/17 08:45:51;;;;;;;3.42;2.70;;;;;30.30;102228.00;;;;5047467;28;20206;-77
2022/06/17 08:48:29;;;;;;;3.45;3.00;;;;;30.40;102231.00;;;;5046136;28;20195;-76
2022/06/17 08:51:23;;;;;;;3.40;3.08;;;;;30.40;102225.00;;;;5049716;28;20214;-77
2022/06/17 08:54:06;;;;;;;2.92;2.33;;;;;30.50;102224.00;;;;5048100;28;20680;-76
2022/06/17 08:56:41;;;;;;;3.53;2.70;;;;;30.70;102217.00;;;;5046379;28;20653;-77
2022/06/17 08:59:27;;;;;;;3.20;2.83;;;;;30.80;102214.00;;;;5044429;28;20846;-77
2022/06/17 09:02:00;;;;;;;2.15;1.65;;;;;30.90;102215.00;;;;5047183;28;20215;-80
2022/06/17 09:04:41;;;;;;;2.88;2.38;;;;;31.00;102213.00;;;;5051155;28;20214;-78
2022/06/17 09:07:19;;;;;;;4.38;2.70;;;;;31.00;102224.00;;;;5050289;28;20187;-78
2022/06/17 09:10:07;;;;;;;3.22;2.10;;;;;31.10;102224.00;;;;5049538;28;20206;-79
2022/06/17 09:12:45;;;;;;;3.53;2.13;;;;;31.20;102225.00;;;;5030062;28;20197;-79
2022/06/17 09:15:22;;;;;;;4.53;2.38;;;;;31.30;102224.00;;;;5039643;28;20214;-78
2022/06/17 09:17:59;;;;;;;3.85;2.25;;;;;31.30;102224.00;;;;5049691;28;20187;-77
2022/06/17 09:20:34;;;;;;;3.45;2.28;;;;;31.40;102224.00;;;;5047317;28;20233;-77
2022/06/17 09:23:06;;;;;;;2.10;1.90;;;;;31.50;102217.00;;;;5046976;28;20298;-77
2022/06/17 09:25:38;;;;;;;2.30;2.08;;;;;31.60;102209.00;;;;5050473;28;20234;-78
2022/06/17 09:28:11;;;;;;;3.65;1.98;;;;;31.60;102219.00;;;;5036990;28;20582;-78
2022/06/17 09:30:45;;;;;;;2.95;1.75;;;;;31.70;102213.00;;;;5047415;28;20196;-78
2022/06/17 09:33:16;;;;;;;2.58;2.25;;;;;31.80;102213.00;;;;5049737;28;20243;-78
2022/06/17 09:35:49;;;;;;;1.98;1.83;;;;;31.90;102221.00;;;;5047197;28;20203;-78
2022/06/17 09:38:22;;;;;;;2.58;1.88;;;;;32.00;102219.00;;;;5029840;28;20196;-78
2022/06/17 09:40:55;;;;;;;3.75;2.10;;;;;32.10;102217.00;;;;5029484;28;20204;-77
2022/06/17 09:43:30;;;;;;;2.70;1.70;;;;;32.20;102211.00;;;;5047800;28;20300;-77
2022/06/17 09:46:04;;;;;;;1.90;1.70;;;;;32.30;102213.00;;;;5048211;28;20198;-76
2022/06/17 09:48:39;;;;;;;2.60;1.90;;;;;32.40;102216.00;;;;5047604;28;20198;-77
2022/06/17 09:51:13;;;;;;;5.20;2.45;;;;;32.50;102213.00;;;;5046149;28;20305;-79
2022/06/17 09:53:48;;;;;;;3.08;1.98;;;;;32.50;102213.00;;;;5049507;28;20201;-77
2022/06/17 09:56:20;;;;;;;2.00;1.65;;;;;32.60;102215.00;;;;5047180;28;20195;-78
2022/06/17 09:58:53;;;;;;;2.60;2.30;;;;;32.60;102210.00;;;;5048597;28;20191;-78
2022/06/17 10:01:21;;;;;;;3.90;2.25;;;;;32.70;102212.00;;;;5044351;28;20286;-78
2022/06/17 10:03:48;;;;;;;1.65;1.55;;;;;32.70;102220.00;;;;5048471;28;20222;-78
2022/06/17 10:06:32;;;;;;;2.08;1.70;;;;;32.70;102216.00;;;;5047490;28;20199;-77
2022/06/17 10:09:15;;;;;;;2.17;1.88;;;;;32.70;102210.00;;;;5043273;28;20210;-77
2022/06/17 10:11:49;;;;;;;2.30;2.10;;;;;32.90;102208.00;;;;5049235;28;20218;-77
2022/06/17 10:14:27;;;;;;;2.33;2.00;;;;;32.90;102212.00;;;;5048850;28;20194;-79
2022/06/17 10:19:58;;;;;;;1.80;1.55;;;;;33.00;102199.00;;;;5046104;28;20221;-77
2022/06/17 10:22:39;;;;;;;6.43;1.40;;;;;33.00;102189.00;;;;5044334;28;20219;-78
2022/06/17 10:25:20;;;;;;;3.60;2.10;;;;;33.00;102183.00;;;;5029295;28;20187;-78
2022/06/17 10:28:02;;;;;;;2.80;2.17;;;;;33.10;102178.00;;;;5036129;28;20728;-77
2022/06/17 10:30:39;;;;;;;2.25;1.67;;;;;33.00;102179.00;;;;5046627;28;20195;-78
2022/06/17 10:33:11;;;;;;;3.25;1.70;;;;;33.10;102182.00;;;;5046198;28;20665;-78
2022/06/17 10:35:41;;;;;;;2.22;2.03;;;;;33.10;102180.00;;;;5041382;28;20223;-78
2022/06/17 10:38:13;;;;;;;3.00;1.60;;;;;33.20;102177.00;;;;5048308;28;20310;-78
2022/06/17 10:40:42;;;;;;;2.75;1.58;;;;;33.20;102179.00;;;;5047662;28;20218;-78
2022/06/17 10:43:15;;;;;;;4.07;2.08;;;;;33.20;102176.00;;;;5046599;28;20278;-79
2022/06/17 10:45:42;;;;;;;2.72;1.92;;;;;33.30;102178.00;;;;5040978;28;20570;-78
2022/06/17 10:48:21;;;;;;;3.45;1.90;;;;;33.30;102178.00;;;;5044453;28;20206;-78
2022/06/17 10:50:49;;;;;;;2.22;1.58;;;;;33.40;102171.00;;;;5041839;28;20196;-77
2022/06/17 10:53:22;;;;;;;1.95;1.75;;;;;33.40;102166.00;;;;5038374;28;20210;-78
2022/06/17 10:55:54;;;;;;;1.70;1.50;;;;;33.50;102165.00;;;;5045795;28;20199;-78
2022/06/17 10:58:24;;;;;;;2.67;1.80;;;;;33.60;102156.00;;;;5046953;28;20214;-77
2022/06/17 11:00:58;;;;;;;1.63;1.50;;;;;33.60;102165.00;;;;5045331;28;20199;-77
2022/06/17 11:03:29;;;;;;;2.33;1.70;;;;;33.60;102159.00;;;;5043990;28;20223;-78
2022/06/17 11:06:01;;;;;;;2.58;1.77;;;;;33.60;102153.00;;;;5047541;28;20195;-78
2022/06/17 11:08:33;;;;;;;1.88;1.67;;;;;33.60;102157.00;;;;5045109;28;20195;-77
2022/06/17 11:13:51;;;;;;;1.75;1.38;;;;;33.70;102142.00;;;;5048413;28;20654;-77
2022/06/17 11:16:21;;;;;;;2.15;1.60;;;;;33.80;102136.00;;;;5046233;28;20657;-77
2022/06/17 11:19:04;;;;;;;2.42;1.92;;;;;33.70;102135.00;;;;5046178;28;20202;-77
2022/06/17 11:21:37;;;;;;;3.83;1.85;;;;;33.80;102137.00;;;;5042600;28;20237;-79
2022/06/17 11:24:06;;;;;;;3.90;1.70;;;;;33.90;102144.00;;;;5049653;28;20226;-79
2022/06/17 11:26:37;;;;;;;1.80;1.63;;;;;33.90;102130.00;;;;5044387;28;20304;-79
2022/06/17 11:29:19;;;;;;;1.65;1.48;;;;;33.90;102139.00;;;;5046534;28;20832;-79
2022/06/17 11:31:49;;;;;;;1.50;1.40;;;;;34.00;102131.00;;;;5049078;28;20657;-79
2022/06/17 11:34:18;;;;;;;2.95;1.83;;;;;34.00;102125.00;;;;5049122;28;20273;-80
2022/06/17 11:37:12;;;;;;;2.80;1.70;;;;;33.80;102110.00;;;;5048169;28;20218;-80
2022/06/17 11:39:40;;;;;;;3.10;2.08;;;;;34.00;102109.00;;;;5045186;28;20203;-80
2022/06/17 11:42:18;;;;;;;7.35;2.05;;;;;33.90;102125.00;;;;5053623;28;20206;-78
2022/06/17 11:44:55;;;;;;;3.33;1.48;;;;;33.90;102115.00;;;;5054041;28;20210;-77
2022/06/17 11:47:25;;;;;;;2.60;1.63;;;;;33.90;102108.00;;;;5060532;28;20698;-77
2022/06/17 11:49:53;;;;;;;1.75;1.45;;;;;34.00;102096.00;;;;5052718;28;20203;-78
2022/06/17 11:52:29;;;;;;;1.70;1.27;;;;;33.90;102085.00;;;;5047108;28;20206;-78
2022/06/17 11:54:57;;;;;;;6.97;1.98;;;;;34.00;102090.00;;;;5054627;28;21007;-77
2022/06/17 11:57:31;;;;;;;1.60;1.50;;;;;33.90;102074.00;;;;5048750;28;20202;-78
2022/06/17 12:00:00;;;;;;;2.90;1.70;;;;;34.00;102085.00;;;;5045040;28;20196;-77
2022/06/17 12:02:27;;;;;;;3.35;1.50;;;;;34.00;102077.00;;;;5046474;28;20578;-77
2022/06/17 12:05:04;;;;;;;1.95;1.52;;;;;34.00;102072.00;;;;5047681;28;20207;-77
2022/06/17 12:07:47;;;;;;;1.88;1.45;;;;;33.90;102078.00;;;;5046816;28;20191;-75
2022/06/17 12:10:27;;;;;;;1.38;1.27;;;;;34.00;102076.00;;;;5047026;28;20192;-77
2022/06/17 12:13:00;;;;;;;1.70;1.58;;;;;34.00;102077.00;;;;5049340;28;20226;-76
2022/06/17 12:15:31;;;;;;;2.03;1.08;;;;;34.10;102088.00;;;;5052445;28;20195;-76
2022/06/17 12:18:00;;;;;;;1.67;1.58;;;;;34.10;102086.00;;;;5045676;28;20199;-76
2022/06/17 12:20:38;;;;;;;1.45;1.20;;;;;34.00;102089.00;;;;5049859;28;20698;-75
2022/06/17 12:23:11;;;;;;;1.77;1.42;;;;;34.10;102082.00;;;;5051308;28;20203;-76
2022/06/17 12:25:44;;;;;;;1.65;1.27;;;;;34.10;102088.00;;;;5051610;28;20665;-76
2022/06/17 12:28:22;;;;;;;1.40;1.30;;;;;34.10;102081.00;;;;5049924;28;20191;-75
2022/06/17 12:30:59;;;;;;;5.40;1.45;;;;;34.10;102084.00;;;;5049524;28;20199;-76
2022/06/17 12:33:33;;;;;;;1.38;1.27;;;;;34.10;102078.00;;;;5051481;28;20229;-76
2022/06/17 12:36:07;;;;;;;5.07;1.33;;;;;34.10;102076.00;;;;5032316;28;20207;-76
2022/06/17 12:38:41;;;;;;;1.20;1.10;;;;;34.10;102076.00;;;;5047290;28;20199;-76
2022/06/17 12:41:17;;;;;;;1.40;1.25;;;;;34.10;102077.00;;;;5050990;28;20822;-76